createdAt,value
2019-05-26T00:00:31.105Z,0.00
2019-05-26T00:01:31.092Z,0.00
2019-05-26T00:02:31.091Z,0.00
2019-05-26T00:03:31.070Z,0.00
2019-05-26T00:04:31.069Z,0.00
2019-05-26T00:05:31.050Z,0.00
2019-05-26T00:06:31.042Z,0.00
2019-05-26T00:07:31.217Z,0.00
2019-05-26T00:08:31.017Z,0.00
2019-05-26T00:09:31.000Z,0.00
2019-05-26T00:10:30.995Z,0.00
2019-05-26T00:11:30.979Z,0.00
2019-05-26T00:12:30.981Z,0.00
2019-05-26T00:13:30.959Z,0.00
2019-05-26T00:14:30.946Z,0.00
2019-05-26T00:15:30.933Z,0.00
2019-05-26T00:16:30.931Z,0.00
2019-05-26T00:17:30.935Z,0.00
2019-05-26T00:18:33.254Z,0.00
2019-05-26T00:19:30.886Z,0.00
2019-05-26T00:20:30.882Z,0.00
2019-05-26T00:21:30.867Z,0.00
2019-05-26T00:22:30.854Z,0.00
2019-05-26T00:23:30.863Z,0.00
2019-05-26T00:24:30.864Z,0.00
2019-05-26T00:25:30.824Z,0.00
2019-05-26T00:26:30.808Z,0.00
2019-05-26T00:27:30.800Z,0.00
2019-05-26T00:28:30.789Z,0.00
2019-05-26T00:29:30.783Z,0.00
2019-05-26T00:30:30.776Z,0.00
2019-05-26T00:31:30.756Z,0.00
2019-05-26T00:32:30.741Z,0.00
2019-05-26T00:33:30.729Z,0.00
2019-05-26T00:34:30.742Z,0.00
2019-05-26T00:35:30.725Z,0.00
2019-05-26T00:36:30.721Z,0.00
2019-05-26T00:37:47.397Z,0.00
2019-05-26T00:38:31.676Z,0.00
2019-05-26T00:39:30.668Z,0.00
2019-05-26T00:40:30.661Z,0.00
2019-05-26T00:41:30.641Z,0.00
2019-05-26T00:42:30.646Z,0.00
2019-05-26T00:43:30.620Z,0.00
2019-05-26T00:44:30.607Z,0.00
2019-05-26T00:45:30.596Z,0.00
2019-05-26T00:46:30.598Z,0.00
2019-05-26T00:47:30.582Z,0.00
2019-05-26T00:48:30.570Z,0.00
2019-05-26T00:49:30.564Z,0.00
2019-05-26T00:50:30.569Z,0.00
2019-05-26T00:51:30.531Z,0.00
2019-05-26T00:52:30.521Z,0.00
2019-05-26T00:53:30.514Z,0.00
2019-05-26T00:54:30.496Z,0.00
2019-05-26T00:55:30.503Z,0.00
2019-05-26T00:56:30.486Z,0.00
2019-05-26T00:57:30.463Z,0.00
2019-05-26T00:58:30.455Z,0.00
2019-05-26T00:59:30.442Z,0.00
2019-05-26T01:00:30.449Z,0.00
2019-05-26T01:01:30.437Z,0.00
2019-05-26T01:02:30.409Z,0.00
2019-05-26T01:03:30.397Z,0.00
2019-05-26T01:04:30.386Z,0.00
2019-05-26T01:05:30.379Z,0.00
2019-05-26T01:06:30.380Z,0.00
2019-05-26T01:07:30.353Z,0.00
2019-05-26T01:08:30.343Z,0.00
2019-05-26T01:09:30.366Z,0.00
2019-05-26T01:10:30.333Z,0.00
2019-05-26T01:11:30.320Z,0.00
2019-05-26T01:12:30.301Z,0.00
2019-05-26T01:13:30.294Z,0.00
2019-05-26T01:14:30.276Z,0.00
2019-05-26T01:15:30.282Z,0.00
2019-05-26T01:16:30.266Z,0.00
2019-05-26T01:17:30.244Z,0.00
2019-05-26T01:18:30.239Z,0.00
2019-05-26T01:19:30.217Z,0.00
2019-05-26T01:20:30.220Z,0.00
2019-05-26T01:21:30.208Z,0.00
2019-05-26T01:22:30.205Z,0.00
2019-05-26T01:23:30.185Z,0.00
2019-05-26T01:24:30.162Z,0.00
2019-05-26T01:25:30.165Z,0.00
2019-05-26T01:26:30.141Z,0.00
2019-05-26T01:27:30.137Z,0.00
2019-05-26T01:28:30.132Z,0.00
2019-05-26T01:29:30.107Z,0.00
2019-05-26T01:30:30.099Z,0.00
2019-05-26T01:31:30.096Z,0.00
2019-05-26T01:32:30.089Z,0.00
2019-05-26T01:33:30.085Z,0.00
2019-05-26T01:34:30.059Z,0.00
2019-05-26T01:35:30.043Z,0.00
2019-05-26T01:36:30.029Z,0.00
2019-05-26T01:37:30.032Z,0.00
2019-05-26T01:38:30.009Z,0.00
2019-05-26T01:39:29.995Z,0.00
2019-05-26T01:40:29.993Z,0.00
2019-05-26T01:41:29.974Z,0.00
2019-05-26T01:42:29.983Z,0.00
2019-05-26T01:43:29.954Z,0.00
2019-05-26T01:44:29.955Z,0.00
2019-05-26T01:45:29.933Z,0.00
2019-05-26T01:46:29.927Z,0.00
2019-05-26T01:47:29.935Z,0.00
2019-05-26T01:48:30.002Z,0.00
2019-05-26T01:49:29.886Z,0.00
2019-05-26T01:50:29.878Z,0.00
2019-05-26T01:51:29.867Z,0.00
2019-05-26T01:52:29.854Z,0.00
2019-05-26T01:53:29.842Z,0.00
2019-05-26T01:54:29.842Z,0.00
2019-05-26T01:55:29.821Z,0.00
2019-05-26T01:56:29.831Z,0.00
2019-05-26T01:57:29.798Z,0.00
2019-05-26T01:58:29.787Z,0.00
2019-05-26T01:59:29.801Z,0.00
2019-05-26T02:00:29.765Z,0.00
2019-05-26T02:01:29.752Z,0.00
2019-05-26T02:02:29.749Z,0.00
2019-05-26T02:03:29.734Z,0.00
2019-05-26T02:04:29.734Z,0.00
2019-05-26T02:05:29.707Z,0.00
2019-05-26T02:06:29.699Z,0.00
2019-05-26T02:07:29.688Z,0.00
2019-05-26T02:08:38.794Z,0.00
2019-05-26T02:09:30.704Z,0.00
2019-05-26T02:10:29.652Z,0.00
2019-05-26T02:11:29.643Z,0.00
2019-05-26T02:12:29.630Z,0.00
2019-05-26T02:13:29.621Z,0.00
2019-05-26T02:14:29.612Z,0.00
2019-05-26T02:15:29.613Z,0.00
2019-05-26T02:16:29.584Z,0.00
2019-05-26T02:17:29.576Z,0.00
2019-05-26T02:18:29.673Z,0.00
2019-05-26T02:19:29.561Z,0.00
2019-05-26T02:20:29.542Z,0.00
2019-05-26T02:21:29.533Z,0.00
2019-05-26T02:22:29.521Z,0.00
2019-05-26T02:23:29.514Z,0.00
2019-05-26T02:24:29.513Z,0.00
2019-05-26T02:25:29.493Z,0.00
2019-05-26T02:26:29.476Z,0.00
2019-05-26T02:27:29.462Z,0.00
2019-05-26T02:28:29.455Z,0.00
2019-05-26T02:29:29.455Z,0.00
2019-05-26T02:30:29.432Z,0.00
2019-05-26T02:31:29.426Z,0.00
2019-05-26T02:32:29.433Z,0.00
2019-05-26T02:33:29.395Z,0.00
2019-05-26T02:34:29.399Z,0.00
2019-05-26T02:35:29.373Z,0.00
2019-05-26T02:36:29.377Z,0.00
2019-05-26T02:37:29.356Z,0.00
2019-05-26T02:38:29.350Z,0.00
2019-05-26T02:39:29.344Z,4.00
2019-05-26T02:40:29.319Z,4.00
2019-05-26T02:41:29.323Z,4.00
2019-05-26T02:42:29.302Z,4.00
2019-05-26T02:43:29.300Z,0.00
2019-05-26T02:44:29.315Z,4.00
2019-05-26T02:45:29.277Z,4.00
2019-05-26T02:46:29.250Z,4.00
2019-05-26T02:47:29.241Z,8.00
2019-05-26T02:48:29.230Z,4.00
2019-05-26T02:49:29.222Z,8.00
2019-05-26T02:50:29.222Z,8.00
2019-05-26T02:51:29.206Z,8.00
2019-05-26T02:52:29.195Z,12.00
2019-05-26T02:53:29.195Z,12.00
2019-05-26T02:54:29.172Z,12.00
2019-05-26T02:55:29.163Z,16.00
2019-05-26T02:56:29.144Z,20.00
2019-05-26T02:57:29.128Z,24.00
2019-05-26T02:58:29.136Z,24.00
2019-05-26T02:59:29.113Z,28.00
2019-05-26T03:00:29.113Z,28.00
2019-05-26T03:01:29.104Z,32.00
2019-05-26T03:02:29.080Z,40.00
2019-05-26T03:03:29.082Z,44.00
2019-05-26T03:04:29.066Z,48.00
2019-05-26T03:05:29.047Z,56.00
2019-05-26T03:06:29.031Z,64.00
2019-05-26T03:07:29.039Z,72.00
2019-05-26T03:08:29.010Z,80.00
2019-05-26T03:09:29.016Z,88.00
2019-05-26T03:10:28.991Z,96.00
2019-05-26T03:11:28.979Z,108.00
2019-05-26T03:12:28.982Z,116.00
2019-05-26T03:13:28.982Z,128.00
2019-05-26T03:14:28.957Z,140.00
2019-05-26T03:15:28.930Z,152.00
2019-05-26T03:16:28.922Z,164.00
2019-05-26T03:17:28.918Z,180.00
2019-05-26T03:18:28.904Z,196.00
2019-05-26T03:19:28.936Z,212.00
2019-05-26T03:20:28.878Z,228.00
2019-05-26T03:21:28.867Z,248.00
2019-05-26T03:22:28.858Z,264.00
2019-05-26T03:23:28.845Z,284.00
2019-05-26T03:24:28.843Z,312.00
2019-05-26T03:25:28.831Z,340.00
2019-05-26T03:26:28.812Z,368.00
2019-05-26T03:27:28.798Z,400.00
2019-05-26T03:28:28.788Z,432.00
2019-05-26T03:29:28.776Z,468.00
2019-05-26T03:30:28.783Z,500.00
2019-05-26T03:31:28.756Z,540.00
2019-05-26T03:32:28.757Z,572.00
2019-05-26T03:33:28.736Z,608.00
2019-05-26T03:34:28.721Z,644.00
2019-05-26T03:35:28.713Z,680.00
2019-05-26T03:36:28.715Z,716.00
2019-05-26T03:37:28.702Z,752.00
2019-05-26T03:38:28.682Z,788.00
2019-05-26T03:39:43.307Z,824.00
2019-05-26T03:40:29.656Z,860.00
2019-05-26T03:41:28.658Z,896.00
2019-05-26T03:42:28.649Z,932.00
2019-05-26T03:43:28.629Z,976.00
2019-05-26T03:44:28.612Z,1020.00
2019-05-26T03:45:28.601Z,1064.00
2019-05-26T03:46:28.589Z,1116.00
2019-05-26T03:47:28.598Z,1168.00
2019-05-26T03:48:28.572Z,1228.00
2019-05-26T03:49:28.560Z,1296.00
2019-05-26T03:50:28.552Z,1360.00
2019-05-26T03:51:28.551Z,1420.00
2019-05-26T03:52:28.531Z,1484.00
2019-05-26T03:53:28.532Z,1548.00
2019-05-26T03:54:28.508Z,1620.00
2019-05-26T03:55:28.492Z,1696.00
2019-05-26T03:56:28.478Z,1784.00
2019-05-26T03:57:28.574Z,1876.00
2019-05-26T03:58:28.487Z,1972.00
2019-05-26T03:59:28.451Z,2072.00
2019-05-26T04:00:28.435Z,2176.00
2019-05-26T04:01:28.430Z,2292.00
2019-05-26T04:02:28.409Z,2416.00
2019-05-26T04:03:28.402Z,2544.00
2019-05-26T04:04:28.404Z,2668.00
2019-05-26T04:05:28.375Z,2800.00
2019-05-26T04:06:28.369Z,2940.00
2019-05-26T04:07:28.357Z,3080.00
2019-05-26T04:08:28.358Z,3208.00
2019-05-26T04:09:28.346Z,3332.00
2019-05-26T04:10:28.332Z,3444.00
2019-05-26T04:11:28.309Z,3540.00
2019-05-26T04:12:28.314Z,3636.00
2019-05-26T04:13:28.317Z,3712.00
2019-05-26T04:14:28.293Z,3780.00
2019-05-26T04:15:28.268Z,3848.00
2019-05-26T04:16:28.256Z,3924.00
2019-05-26T04:17:28.244Z,4016.00
2019-05-26T04:18:28.234Z,4144.00
2019-05-26T04:19:28.237Z,4348.00
2019-05-26T04:20:28.241Z,4640.00
2019-05-26T04:21:28.201Z,4968.00
2019-05-26T04:22:28.192Z,5216.00
2019-05-26T04:23:28.183Z,5300.00
2019-05-26T04:24:28.165Z,5308.00
2019-05-26T04:25:28.228Z,5316.00
2019-05-26T04:26:28.165Z,5448.00
2019-05-26T04:27:28.152Z,5812.00
2019-05-26T04:28:28.123Z,5864.00
2019-05-26T04:29:28.125Z,5816.00
2019-05-26T04:30:28.115Z,5868.00
2019-05-26T04:31:28.104Z,6156.00
2019-05-26T04:32:28.075Z,6556.00
2019-05-26T04:33:28.065Z,7008.00
2019-05-26T04:34:28.055Z,7336.00
2019-05-26T04:35:28.046Z,7496.00
2019-05-26T04:36:28.055Z,7724.00
2019-05-26T04:37:28.040Z,7816.00
2019-05-26T04:38:28.008Z,7848.00
2019-05-26T04:39:27.994Z,7804.00
2019-05-26T04:40:28.368Z,7728.00
2019-05-26T04:41:28.002Z,7468.00
2019-05-26T04:42:27.962Z,7288.00
2019-05-26T04:43:27.951Z,7336.00
2019-05-26T04:44:27.948Z,7544.00
2019-05-26T04:45:27.936Z,7600.00
2019-05-26T04:46:27.956Z,7480.00
2019-05-26T04:47:27.905Z,7484.00
2019-05-26T04:48:27.900Z,7516.00
2019-05-26T04:49:27.892Z,7660.00
2019-05-26T04:50:27.878Z,7844.00
2019-05-26T04:51:27.868Z,7976.00
2019-05-26T04:52:27.864Z,8028.00
2019-05-26T04:53:27.841Z,8020.00
2019-05-26T04:54:27.832Z,8220.00
2019-05-26T04:55:27.817Z,8352.00
2019-05-26T04:56:27.808Z,8408.00
2019-05-26T04:57:27.812Z,8508.00
2019-05-26T04:58:27.784Z,8656.00
2019-05-26T04:59:27.788Z,8788.00
2019-05-26T05:00:27.765Z,8936.00
2019-05-26T05:01:27.752Z,8884.00
2019-05-26T05:02:27.742Z,8916.00
2019-05-26T05:03:27.749Z,9116.00
2019-05-26T05:04:27.725Z,9304.00
2019-05-26T05:05:27.707Z,9516.00
2019-05-26T05:06:27.699Z,9820.00
2019-05-26T05:07:28.709Z,10104.00
2019-05-26T05:08:27.683Z,10372.00
2019-05-26T05:09:27.665Z,10548.00
2019-05-26T05:10:41.220Z,10620.00
2019-05-26T05:11:28.645Z,10844.00
2019-05-26T05:12:27.626Z,11136.00
2019-05-26T05:13:27.627Z,11508.00
2019-05-26T05:14:27.603Z,11900.00
2019-05-26T05:15:27.598Z,12460.00
2019-05-26T05:16:27.582Z,13040.00
2019-05-26T05:17:27.614Z,12920.00
2019-05-26T05:18:27.564Z,12532.00
2019-05-26T05:19:27.548Z,11948.00
2019-05-26T05:20:27.542Z,11716.00
2019-05-26T05:21:27.530Z,11596.00
2019-05-26T05:22:27.531Z,11404.00
2019-05-26T05:23:27.507Z,11532.00
2019-05-26T05:24:27.507Z,11852.00
2019-05-26T05:25:27.485Z,12308.00
2019-05-26T05:26:27.473Z,12752.00
2019-05-26T05:27:27.462Z,12940.00
2019-05-26T05:28:27.450Z,13148.00
2019-05-26T05:29:27.452Z,13008.00
2019-05-26T05:30:27.429Z,13632.00
2019-05-26T05:31:27.429Z,14868.00
2019-05-26T05:32:27.412Z,20032.00
2019-05-26T05:33:27.396Z,22656.00
2019-05-26T05:34:27.399Z,23552.00
2019-05-26T05:35:27.372Z,26112.00
2019-05-26T05:36:27.375Z,30272.00
2019-05-26T05:37:27.553Z,23968.00
2019-05-26T05:38:27.344Z,20224.00
2019-05-26T05:39:27.344Z,19776.00
2019-05-26T05:40:27.328Z,30528.00
2019-05-26T05:41:27.305Z,24096.00
2019-05-26T05:42:27.294Z,26592.00
2019-05-26T05:43:27.284Z,20832.00
2019-05-26T05:44:27.299Z,23328.00
2019-05-26T05:45:27.300Z,22528.00
2019-05-26T05:46:27.256Z,20608.00
2019-05-26T05:47:27.241Z,26688.00
2019-05-26T05:48:27.242Z,35616.00
2019-05-26T05:49:27.218Z,37536.00
2019-05-26T05:50:27.206Z,27872.00
2019-05-26T05:51:27.204Z,24224.00
2019-05-26T05:52:27.184Z,24768.00
2019-05-26T05:53:27.171Z,27392.00
2019-05-26T05:54:27.164Z,28096.00
2019-05-26T05:55:27.165Z,28256.00
2019-05-26T05:56:27.137Z,25184.00
2019-05-26T05:57:27.140Z,24352.00
2019-05-26T05:58:27.117Z,26464.00
2019-05-26T05:59:27.106Z,27200.00
2019-05-26T06:00:27.135Z,27936.00
2019-05-26T06:01:27.105Z,27808.00
2019-05-26T06:02:27.084Z,29920.00
2019-05-26T06:03:27.059Z,33344.00
2019-05-26T06:04:27.050Z,35904.00
2019-05-26T06:05:27.040Z,38848.00
2019-05-26T06:06:27.109Z,44032.00
2019-05-26T06:07:27.021Z,46528.00
2019-05-26T06:08:27.132Z,46144.00
2019-05-26T06:09:26.995Z,43936.00
2019-05-26T06:10:26.989Z,38624.00
2019-05-26T06:11:26.979Z,33504.00
2019-05-26T06:12:26.963Z,37568.00
2019-05-26T06:13:26.961Z,38656.00
2019-05-26T06:14:26.951Z,43840.00
2019-05-26T06:15:26.932Z,44288.00
2019-05-26T06:16:26.919Z,41856.00
2019-05-26T06:17:26.915Z,34880.00
2019-05-26T06:18:26.893Z,32224.00
2019-05-26T06:19:26.888Z,32960.00
2019-05-26T06:20:26.889Z,29184.00
2019-05-26T06:21:26.868Z,28448.00
2019-05-26T06:22:26.854Z,26336.00
2019-05-26T06:23:26.856Z,25664.00
2019-05-26T06:24:26.830Z,24768.00
2019-05-26T06:25:26.836Z,23936.00
2019-05-26T06:26:26.854Z,22560.00
2019-05-26T06:27:26.800Z,22208.00
2019-05-26T06:28:26.784Z,22144.00
2019-05-26T06:29:26.779Z,21664.00
2019-05-26T06:30:26.762Z,21536.00
2019-05-26T06:31:26.767Z,21440.00
2019-05-26T06:32:26.757Z,21344.00
2019-05-26T06:33:26.744Z,20960.00
2019-05-26T06:34:26.722Z,20672.00
2019-05-26T06:35:26.710Z,20800.00
2019-05-26T06:36:26.700Z,20896.00
2019-05-26T06:37:26.703Z,21056.00
2019-05-26T06:38:26.712Z,21312.00
2019-05-26T06:39:26.666Z,21504.00
2019-05-26T06:40:26.708Z,22240.00
2019-05-26T06:41:33.313Z,23968.00
2019-05-26T06:42:27.631Z,24832.00
2019-05-26T06:43:26.618Z,25568.00
2019-05-26T06:44:26.620Z,25248.00
2019-05-26T06:45:26.599Z,25952.00
2019-05-26T06:46:26.601Z,26944.00
2019-05-26T06:47:26.591Z,28640.00
2019-05-26T06:48:27.153Z,32416.00
2019-05-26T06:49:26.552Z,36928.00
2019-05-26T06:50:26.545Z,39072.00
2019-05-26T06:51:26.542Z,40672.00
2019-05-26T06:52:26.519Z,41664.00
2019-05-26T06:53:26.521Z,40032.00
2019-05-26T06:54:26.498Z,38048.00
2019-05-26T06:55:26.488Z,36224.00
2019-05-26T06:56:26.477Z,38240.00
2019-05-26T06:57:26.464Z,35488.00
2019-05-26T06:58:26.484Z,33888.00
2019-05-26T06:59:26.443Z,33600.00
2019-05-26T07:00:26.434Z,32992.00
2019-05-26T07:01:26.422Z,31744.00
2019-05-26T07:02:26.410Z,30624.00
2019-05-26T07:03:26.403Z,30400.00
2019-05-26T07:04:26.406Z,31904.00
2019-05-26T07:05:26.393Z,34272.00
2019-05-26T07:06:26.371Z,35040.00
2019-05-26T07:07:26.356Z,36416.00
2019-05-26T07:08:26.346Z,35232.00
2019-05-26T07:09:26.391Z,34752.00
2019-05-26T07:10:26.333Z,32864.00
2019-05-26T07:11:26.321Z,30528.00
2019-05-26T07:12:26.302Z,28512.00
2019-05-26T07:13:26.297Z,26912.00
2019-05-26T07:14:26.282Z,25952.00
2019-05-26T07:15:26.290Z,26432.00
2019-05-26T07:16:37.537Z,26528.00
2019-05-26T07:17:27.245Z,26912.00
2019-05-26T07:18:26.234Z,28064.00
2019-05-26T07:19:26.226Z,29376.00
2019-05-26T07:20:26.220Z,29824.00
2019-05-26T07:21:26.213Z,30208.00
2019-05-26T07:22:26.193Z,30432.00
2019-05-26T07:23:26.177Z,31968.00
2019-05-26T07:24:29.365Z,32192.00
2019-05-26T07:25:26.155Z,33184.00
2019-05-26T07:26:26.157Z,34336.00
2019-05-26T07:27:26.132Z,35904.00
2019-05-26T07:28:26.124Z,37600.00
2019-05-26T07:29:26.114Z,39008.00
2019-05-26T07:30:26.116Z,40096.00
2019-05-26T07:31:26.101Z,41248.00
2019-05-26T07:32:26.078Z,41952.00
2019-05-26T07:33:26.065Z,41376.00
2019-05-26T07:34:26.057Z,42720.00
2019-05-26T07:35:26.047Z,42816.00
2019-05-26T07:36:26.052Z,44992.00
2019-05-26T07:37:26.026Z,48480.00
2019-05-26T07:38:26.014Z,53984.00
2019-05-26T07:39:26.004Z,56128.00
2019-05-26T07:40:25.992Z,61728.00
2019-05-26T07:41:25.993Z,66432.00
2019-05-26T07:42:25.971Z,64864.00
2019-05-26T07:43:28.207Z,71456.00
2019-05-26T07:44:25.948Z,64224.00
2019-05-26T07:45:25.938Z,72352.00
2019-05-26T07:46:25.953Z,64320.00
2019-05-26T07:47:25.915Z,57152.00
2019-05-26T07:48:25.906Z,44416.00
2019-05-26T07:49:25.906Z,35264.00
2019-05-26T07:50:25.897Z,33984.00
2019-05-26T07:51:25.878Z,44288.00
2019-05-26T07:52:25.860Z,45696.00
2019-05-26T07:53:25.865Z,49312.00
2019-05-26T07:54:26.217Z,44640.00
2019-05-26T07:55:25.827Z,44096.00
2019-05-26T07:56:25.817Z,41856.00
2019-05-26T07:57:25.806Z,44064.00
2019-05-26T07:58:25.830Z,46944.00
2019-05-26T07:59:25.802Z,48128.00
2019-05-26T08:00:25.775Z,49920.00
2019-05-26T08:01:35.093Z,51744.00
2019-05-26T08:02:26.763Z,51648.00
2019-05-26T08:03:25.744Z,49376.00
2019-05-26T08:04:25.730Z,57056.00
2019-05-26T08:05:25.760Z,65024.00
2019-05-26T08:06:25.709Z,74176.00
2019-05-26T08:07:25.699Z,73888.00
2019-05-26T08:08:25.688Z,73856.00
2019-05-26T08:09:25.683Z,78336.00
2019-05-26T08:10:25.677Z,81600.00
2019-05-26T08:11:25.668Z,87104.00
2019-05-26T08:12:29.890Z,92864.00
2019-05-26T08:13:26.651Z,90880.00
2019-05-26T08:14:25.687Z,87648.00
2019-05-26T08:15:25.613Z,72064.00
2019-05-26T08:16:25.603Z,67552.00
2019-05-26T08:17:25.604Z,74272.00
2019-05-26T08:18:25.595Z,69760.00
2019-05-26T08:19:25.579Z,65376.00
2019-05-26T08:20:25.595Z,69216.00
2019-05-26T08:21:25.558Z,69120.00
2019-05-26T08:22:25.537Z,67360.00
2019-05-26T08:23:25.525Z,73824.00
2019-05-26T08:24:25.520Z,79872.00
2019-05-26T08:25:25.506Z,98816.00
2019-05-26T08:26:25.511Z,106976.00
2019-05-26T08:27:25.484Z,100384.00
2019-05-26T08:28:25.484Z,72128.00
2019-05-26T08:29:25.472Z,50016.00
2019-05-26T08:30:25.453Z,39584.00
2019-05-26T08:31:25.457Z,90112.00
2019-05-26T08:32:25.438Z,110848.00
2019-05-26T08:33:25.428Z,102432.00
2019-05-26T08:34:25.415Z,108704.00
2019-05-26T08:35:25.415Z,71552.00
2019-05-26T08:36:25.392Z,77952.00
2019-05-26T08:37:25.398Z,56256.00
2019-05-26T08:38:25.377Z,102528.00
2019-05-26T08:39:25.426Z,94272.00
2019-05-26T08:40:25.362Z,96800.00
2019-05-26T08:41:25.353Z,99744.00
2019-05-26T08:42:28.989Z,98080.00
2019-05-26T08:43:26.321Z,117600.00
2019-05-26T08:44:25.312Z,116864.00
2019-05-26T08:45:25.304Z,122048.00
2019-05-26T08:46:25.292Z,103456.00
2019-05-26T08:47:25.280Z,122176.00
2019-05-26T08:48:25.382Z,70176.00
2019-05-26T08:49:25.263Z,82752.00
2019-05-26T08:50:25.251Z,62816.00
2019-05-26T08:51:25.252Z,50048.00
2019-05-26T08:52:25.229Z,51392.00
2019-05-26T08:53:25.239Z,50624.00
2019-05-26T08:54:25.218Z,55200.00
2019-05-26T08:55:25.202Z,69568.00
2019-05-26T08:56:25.192Z,49504.00
2019-05-26T08:57:25.179Z,45536.00
2019-05-26T08:58:25.219Z,41504.00
2019-05-26T08:59:25.158Z,40192.00
2019-05-26T09:00:25.155Z,38240.00
2019-05-26T09:01:25.151Z,34976.00
2019-05-26T09:02:25.130Z,33024.00
2019-05-26T09:03:25.144Z,32032.00
2019-05-26T09:04:25.109Z,32224.00
2019-05-26T09:05:25.101Z,32512.00
2019-05-26T09:06:25.111Z,33344.00
2019-05-26T09:07:25.081Z,34496.00
2019-05-26T09:08:25.064Z,35808.00
2019-05-26T09:09:25.074Z,35360.00
2019-05-26T09:10:25.043Z,34112.00
2019-05-26T09:11:25.035Z,33696.00
2019-05-26T09:12:25.024Z,33408.00
2019-05-26T09:13:25.017Z,33536.00
2019-05-26T09:14:25.628Z,33248.00
2019-05-26T09:15:24.993Z,32576.00
2019-05-26T09:16:24.987Z,31328.00
2019-05-26T09:17:24.977Z,30368.00
2019-05-26T09:18:24.969Z,29024.00
2019-05-26T09:19:24.964Z,27392.00
2019-05-26T09:20:24.936Z,25504.00
2019-05-26T09:21:24.929Z,23840.00
2019-05-26T09:22:24.913Z,22528.00
2019-05-26T09:23:24.907Z,21792.00
2019-05-26T09:24:24.914Z,21152.00
2019-05-26T09:25:24.884Z,20768.00
2019-05-26T09:26:24.880Z,20096.00
2019-05-26T09:27:24.862Z,18880.00
2019-05-26T09:28:24.859Z,17568.00
2019-05-26T09:29:24.864Z,17120.00
2019-05-26T09:30:24.841Z,18400.00
2019-05-26T09:31:24.824Z,18848.00
2019-05-26T09:32:24.807Z,18528.00
2019-05-26T09:33:24.799Z,18272.00
2019-05-26T09:34:24.796Z,17984.00
2019-05-26T09:35:24.816Z,17184.00
2019-05-26T09:36:24.763Z,16124.00
2019-05-26T09:37:24.758Z,15232.00
2019-05-26T09:38:24.752Z,15060.00
2019-05-26T09:39:24.743Z,15280.00
2019-05-26T09:40:24.731Z,15728.00
2019-05-26T09:41:24.715Z,16480.00
2019-05-26T09:42:24.703Z,17184.00
2019-05-26T09:43:24.686Z,17760.00
2019-05-26T09:44:24.685Z,18208.00
2019-05-26T09:45:24.678Z,18592.00
2019-05-26T09:46:24.656Z,19520.00
2019-05-26T09:47:24.651Z,20768.00
2019-05-26T09:48:24.633Z,22208.00
2019-05-26T09:49:24.626Z,24128.00
2019-05-26T09:50:24.625Z,26112.00
2019-05-26T09:51:24.604Z,27680.00
2019-05-26T09:52:24.599Z,28000.00
2019-05-26T09:53:24.577Z,27136.00
2019-05-26T09:54:24.572Z,26432.00
2019-05-26T09:55:24.554Z,25568.00
2019-05-26T09:56:25.216Z,24768.00
2019-05-26T09:57:24.552Z,23904.00
2019-05-26T09:58:24.526Z,23168.00
2019-05-26T09:59:24.530Z,23328.00
2019-05-26T10:00:24.503Z,24640.00
2019-05-26T10:01:24.504Z,26336.00
2019-05-26T10:02:24.479Z,27264.00
2019-05-26T10:03:24.505Z,26784.00
2019-05-26T10:04:24.460Z,25696.00
2019-05-26T10:05:24.451Z,24960.00
2019-05-26T10:06:24.436Z,26400.00
2019-05-26T10:07:24.427Z,27680.00
2019-05-26T10:08:24.418Z,27392.00
2019-05-26T10:09:24.414Z,26272.00
2019-05-26T10:10:24.396Z,24768.00
2019-05-26T10:11:24.382Z,25248.00
2019-05-26T10:12:24.369Z,25568.00
2019-05-26T10:13:31.635Z,26432.00
2019-05-26T10:14:25.366Z,27296.00
2019-05-26T10:15:24.340Z,28288.00
2019-05-26T10:16:24.344Z,29312.00
2019-05-26T10:17:24.317Z,30144.00
2019-05-26T10:18:24.335Z,30464.00
2019-05-26T10:19:24.292Z,30944.00
2019-05-26T10:20:24.284Z,31392.00
2019-05-26T10:21:24.274Z,31520.00
2019-05-26T10:22:24.266Z,31840.00
2019-05-26T10:23:24.250Z,32288.00
2019-05-26T10:24:24.254Z,32128.00
2019-05-26T10:25:24.232Z,32640.00
2019-05-26T10:26:24.215Z,33216.00
2019-05-26T10:27:24.229Z,33408.00
2019-05-26T10:28:24.205Z,33056.00
2019-05-26T10:29:24.186Z,32320.00
2019-05-26T10:30:24.198Z,32384.00
2019-05-26T10:31:24.720Z,33248.00
2019-05-26T10:32:24.153Z,34496.00
2019-05-26T10:33:24.145Z,36448.00
2019-05-26T10:34:24.141Z,37760.00
2019-05-26T10:35:24.117Z,38752.00
2019-05-26T10:36:24.114Z,39008.00
2019-05-26T10:37:24.095Z,38304.00
2019-05-26T10:38:24.090Z,35040.00
2019-05-26T10:39:24.087Z,32480.00
2019-05-26T10:40:24.064Z,31232.00
2019-05-26T10:41:24.067Z,30816.00
2019-05-26T10:42:24.045Z,30816.00
2019-05-26T10:43:24.042Z,31104.00
2019-05-26T10:44:24.053Z,32480.00
2019-05-26T10:45:24.013Z,34048.00
2019-05-26T10:46:23.999Z,35008.00
2019-05-26T10:47:23.991Z,35776.00
2019-05-26T10:48:23.980Z,36992.00
2019-05-26T10:49:23.968Z,37504.00
2019-05-26T10:50:23.977Z,36448.00
2019-05-26T10:51:23.947Z,33600.00
2019-05-26T10:52:23.942Z,30272.00
2019-05-26T10:53:23.932Z,28832.00
2019-05-26T10:54:23.914Z,26848.00
2019-05-26T10:55:23.916Z,24608.00
2019-05-26T10:56:23.892Z,23968.00
2019-05-26T10:57:23.882Z,25216.00
2019-05-26T10:58:23.876Z,25792.00
2019-05-26T10:59:23.865Z,25536.00
2019-05-26T11:00:23.860Z,25504.00
2019-05-26T11:01:23.839Z,25664.00
2019-05-26T11:02:23.845Z,26944.00
2019-05-26T11:03:23.819Z,28320.00
2019-05-26T11:04:23.807Z,29184.00
2019-05-26T11:05:23.792Z,30112.00
2019-05-26T11:06:23.811Z,31648.00
2019-05-26T11:07:26.801Z,33152.00
2019-05-26T11:08:23.761Z,33920.00
2019-05-26T11:09:23.754Z,34016.00
2019-05-26T11:10:23.742Z,33664.00
2019-05-26T11:11:23.757Z,33184.00
2019-05-26T11:12:23.717Z,33696.00
2019-05-26T11:13:23.711Z,33952.00
2019-05-26T11:14:23.695Z,34048.00
2019-05-26T11:15:23.688Z,34144.00
2019-05-26T11:16:23.684Z,34112.00
2019-05-26T11:17:23.683Z,34432.00
2019-05-26T11:18:23.663Z,35168.00
2019-05-26T11:19:23.642Z,36896.00
2019-05-26T11:20:24.437Z,38400.00
2019-05-26T11:21:23.640Z,39072.00
2019-05-26T11:22:23.625Z,39200.00
2019-05-26T11:23:23.598Z,38688.00
2019-05-26T11:24:23.587Z,38752.00
2019-05-26T11:25:23.582Z,38688.00
2019-05-26T11:26:23.565Z,38624.00
2019-05-26T11:27:23.568Z,39456.00
2019-05-26T11:28:23.545Z,39328.00
2019-05-26T11:29:23.535Z,40000.00
2019-05-26T11:30:23.526Z,40192.00
2019-05-26T11:31:23.529Z,40064.00
2019-05-26T11:32:23.586Z,38432.00
2019-05-26T11:33:23.508Z,36832.00
2019-05-26T11:34:23.477Z,35008.00
2019-05-26T11:35:23.476Z,36896.00
2019-05-26T11:36:23.461Z,38176.00
2019-05-26T11:37:23.465Z,38304.00
2019-05-26T11:38:23.447Z,38816.00
2019-05-26T11:39:23.425Z,40704.00
2019-05-26T11:40:23.414Z,42592.00
2019-05-26T11:41:23.415Z,44224.00
2019-05-26T11:42:23.409Z,45824.00
2019-05-26T11:43:23.389Z,45568.00
2019-05-26T11:44:23.449Z,44448.00
2019-05-26T11:45:23.384Z,43104.00
2019-05-26T11:46:23.402Z,41632.00
2019-05-26T11:47:23.436Z,40704.00
2019-05-26T11:48:23.371Z,37728.00
2019-05-26T11:49:23.342Z,34944.00
2019-05-26T11:50:23.391Z,32992.00
2019-05-26T11:51:23.360Z,31392.00
2019-05-26T11:52:23.294Z,30336.00
2019-05-26T11:53:23.454Z,28672.00
2019-05-26T11:54:23.419Z,28160.00
2019-05-26T11:55:23.254Z,28672.00
2019-05-26T11:56:23.242Z,30336.00
2019-05-26T11:57:23.281Z,32704.00
2019-05-26T11:58:23.341Z,35520.00
2019-05-26T11:59:23.244Z,38752.00
2019-05-26T12:00:23.198Z,42016.00
2019-05-26T12:01:23.378Z,44160.00
2019-05-26T12:02:23.180Z,44640.00
2019-05-26T12:03:23.187Z,43904.00
2019-05-26T12:04:23.166Z,43168.00
2019-05-26T12:05:23.152Z,42624.00
2019-05-26T12:06:23.156Z,42528.00
2019-05-26T12:07:23.127Z,43264.00
2019-05-26T12:08:23.141Z,43552.00
2019-05-26T12:09:23.102Z,44768.00
2019-05-26T12:10:23.094Z,45728.00